createdAt,value
2018-09-06T00:00:06.547Z,997.1
2018-09-06T00:01:16.636Z,997.08
2018-09-06T00:02:26.765Z,997.07
2018-09-06T00:03:36.864Z,997.09
2018-09-06T00:04:47.027Z,997.05
2018-09-06T00:05:57.402Z,997.11
2018-09-06T00:07:07.565Z,997.09
2018-09-06T00:08:17.675Z,997.09
2018-09-06T00:09:27.499Z,997.12
2018-09-06T00:10:37.371Z,997.12
2018-09-06T00:11:47.475Z,997.13
2018-09-06T00:12:57.560Z,997.13
2018-09-06T00:14:07.668Z,997.13
2018-09-06T00:15:17.503Z,997.14
2018-09-06T00:16:27.586Z,997.15
2018-09-06T00:17:37.683Z,997.09
2018-09-06T00:18:47.777Z,997.12
2018-09-06T00:19:57.864Z,997.12
2018-09-06T00:21:08.109Z,997.12
2018-09-06T00:22:18.191Z,997.15
2018-09-06T00:23:27.763Z,997.13
2018-09-06T00:24:37.841Z,997.12
2018-09-06T00:25:47.992Z,997.08
2018-09-06T00:26:58.112Z,997.11
2018-09-06T00:28:07.954Z,997.1
2018-09-06T00:29:18.053Z,997.13
2018-09-06T00:30:28.202Z,997.14
2018-09-06T00:31:38.045Z,997.09
2018-09-06T00:32:48.149Z,997.12
2018-09-06T00:33:58.248Z,997.1
2018-09-06T00:35:08.380Z,997.07
2018-09-06T00:36:18.471Z,997.1
2018-09-06T00:37:28.307Z,997.08
2018-09-06T00:38:38.419Z,997.09
2018-09-06T00:39:48.493Z,997.05
2018-09-06T00:40:58.591Z,997.07
2018-09-06T00:42:08.733Z,997.06
2018-09-06T00:43:19.261Z,997.07
2018-09-06T00:44:29.375Z,997.03
2018-09-06T00:45:39.484Z,997.03
2018-09-06T00:46:49.570Z,997.04
2018-09-06T00:47:59.701Z,997.04
2018-09-06T00:49:09.519Z,997.02
2018-09-06T00:50:19.604Z,997.04
2018-09-06T00:51:29.681Z,997.06
2018-09-06T00:52:39.770Z,997.04
2018-09-06T00:53:49.627Z,997.04
2018-09-06T00:54:59.951Z,997.01
2018-09-06T00:56:09.769Z,996.98
2018-09-06T00:57:19.839Z,996.97
2018-09-06T00:58:29.663Z,997
2018-09-06T00:59:39.774Z,997
2018-09-06T01:00:49.876Z,996.98
2018-09-06T01:01:59.978Z,997
2018-09-06T01:03:09.793Z,997.01
2018-09-06T01:04:19.639Z,997
2018-09-06T01:05:29.459Z,996.99
2018-09-06T01:06:39.280Z,997.01
2018-09-06T01:07:49.358Z,996.99
2018-09-06T01:08:59.437Z,996.93
2018-09-06T01:10:09.528Z,996.93
2018-09-06T01:11:20.679Z,996.91
2018-09-06T01:12:30.523Z,996.92
2018-09-06T01:13:40.595Z,996.89
2018-09-06T01:14:50.636Z,996.89
2018-09-06T01:16:00.437Z,996.88
2018-09-06T01:17:10.518Z,996.88
2018-09-06T01:18:20.319Z,996.86
2018-09-06T01:19:30.134Z,996.86
2018-09-06T01:20:39.956Z,996.89
2018-09-06T01:21:49.764Z,996.87
2018-09-06T01:22:59.858Z,996.89
2018-09-06T01:24:09.672Z,996.88
2018-09-06T01:25:19.777Z,996.87
2018-09-06T01:26:29.854Z,996.91
2018-09-06T01:27:39.929Z,996.91
2018-09-06T01:28:50.067Z,996.88
2018-09-06T01:30:00.129Z,996.83
2018-09-06T01:31:10.212Z,996.87
2018-09-06T01:32:20.290Z,996.84
2018-09-06T01:33:30.368Z,996.84
2018-09-06T01:34:40.465Z,996.8
2018-09-06T01:35:50.278Z,996.85
2018-09-06T01:37:00.107Z,996.85
2018-09-06T01:38:10.196Z,996.82
2018-09-06T01:39:20.390Z,996.82
2018-09-06T01:40:30.276Z,996.84
2018-09-06T01:41:40.351Z,996.83
2018-09-06T01:42:50.425Z,996.83
2018-09-06T01:44:00.501Z,996.84
2018-09-06T01:45:10.808Z,996.81
2018-09-06T01:46:20.934Z,996.79
2018-09-06T01:47:31.022Z,996.81
2018-09-06T01:48:40.841Z,996.78
2018-09-06T01:49:50.663Z,996.75
2018-09-06T01:51:00.502Z,996.79
2018-09-06T01:52:10.626Z,996.75
2018-09-06T01:53:20.744Z,996.77
2018-09-06T01:54:30.550Z,996.76
2018-09-06T01:55:40.626Z,996.71
2018-09-06T01:56:50.699Z,996.71
2018-09-06T01:58:01.097Z,996.72
2018-09-06T01:59:11.179Z,996.72
2018-09-06T02:00:21.263Z,996.7
2018-09-06T02:01:31.344Z,996.69
2018-09-06T02:02:41.426Z,996.71
2018-09-06T02:03:51.544Z,996.71
2018-09-06T02:05:01.622Z,996.71
2018-09-06T02:06:11.707Z,996.68
2018-09-06T02:07:21.795Z,996.7
2018-09-06T02:08:31.879Z,996.69
2018-09-06T02:09:41.957Z,996.67
2018-09-06T02:10:52.047Z,996.63
2018-09-06T02:12:02.187Z,996.66
2018-09-06T02:13:12.265Z,996.64
2018-09-06T02:14:22.364Z,996.67
2018-09-06T02:15:32.180Z,996.65
2018-09-06T02:16:42.316Z,996.65
2018-09-06T02:17:52.852Z,996.61
2018-09-06T02:19:03.028Z,996.57
2018-09-06T02:20:12.849Z,996.62
2018-09-06T02:21:22.949Z,996.58
2018-09-06T02:22:33.023Z,996.58
2018-09-06T02:23:42.836Z,996.58
2018-09-06T02:24:52.635Z,996.55
2018-09-06T02:26:02.215Z,996.54
2018-09-06T02:27:12.359Z,996.57
2018-09-06T02:28:22.440Z,996.54
2018-09-06T02:29:32.516Z,996.52
2018-09-06T02:30:42.629Z,996.51
2018-09-06T02:31:52.716Z,996.52
2018-09-06T02:33:02.308Z,996.5
2018-09-06T02:34:12.372Z,996.51
2018-09-06T02:35:22.213Z,996.53
2018-09-06T02:36:32.291Z,996.53
2018-09-06T02:37:42.367Z,996.5
2018-09-06T02:38:52.556Z,996.52
2018-09-06T02:40:02.639Z,996.51
2018-09-06T02:41:12.717Z,996.52
2018-09-06T02:42:22.804Z,996.52
2018-09-06T02:43:32.887Z,996.48
2018-09-06T02:44:43.015Z,996.5
2018-09-06T02:45:53.102Z,996.51
2018-09-06T02:47:03.347Z,996.47
2018-09-06T02:48:13.437Z,996.43
2018-09-06T02:49:23.370Z,996.46
2018-09-06T02:50:33.455Z,996.44
2018-09-06T02:51:43.530Z,996.41
2018-09-06T02:52:53.064Z,996.46
2018-09-06T02:54:03.389Z,996.42
2018-09-06T02:55:13.602Z,996.43
2018-09-06T02:56:23.718Z,996.38
2018-09-06T02:57:33.535Z,996.36
2018-09-06T02:58:43.107Z,996.37
2018-09-06T02:59:53.183Z,996.39
2018-09-06T03:01:03.258Z,996.35
2018-09-06T03:02:13.359Z,996.36
2018-09-06T03:35:07.221Z,996.47
2018-09-06T03:36:17.272Z,996.46
2018-09-06T03:37:27.345Z,996.46
2018-09-06T03:38:37.427Z,996.46
2018-09-06T03:39:47.521Z,996.44
2018-09-06T03:40:57.362Z,996.45
2018-09-06T03:42:07.450Z,996.42
2018-09-06T03:43:17.264Z,996.4
2018-09-06T03:44:27.069Z,996.41
2018-09-06T03:45:36.895Z,996.45
2018-09-06T03:46:46.959Z,996.45
2018-09-06T03:47:57.031Z,996.45
2018-09-06T03:49:07.140Z,996.46
2018-09-06T03:50:16.992Z,996.43
2018-09-06T03:51:27.075Z,996.44
2018-09-06T03:52:37.140Z,996.47
2018-09-06T03:53:46.917Z,996.48
2018-09-06T03:54:56.995Z,996.48
2018-09-06T03:56:07.078Z,996.46
2018-09-06T03:57:17.169Z,996.46
2018-09-06T03:58:27.216Z,996.46
2018-09-06T03:59:37.298Z,996.43
2018-09-06T04:00:47.382Z,996.41
2018-09-06T04:01:57.215Z,996.39
2018-09-06T04:03:07.307Z,996.4
2018-09-06T04:04:17.408Z,996.43
2018-09-06T04:05:27.502Z,996.4
2018-09-06T04:06:37.608Z,996.39
2018-09-06T04:07:47.733Z,996.39
2018-09-06T04:08:57.305Z,996.43
2018-09-06T04:10:07.392Z,996.42
2018-09-06T04:11:17.190Z,996.47
2018-09-06T04:12:27.284Z,996.5
2018-09-06T04:13:37.147Z,996.5
2018-09-06T04:14:47.301Z,996.54
2018-09-06T04:15:57.377Z,996.52
2018-09-06T04:17:07.465Z,996.51
2018-09-06T04:18:17.567Z,996.55
2018-09-06T04:19:27.947Z,996.52
2018-09-06T04:20:38.063Z,996.55
2018-09-06T04:21:47.875Z,996.57
2018-09-06T04:22:57.999Z,996.57
2018-09-06T04:24:08.168Z,996.57
2018-09-06T04:25:18.176Z,996.6
2018-09-06T04:26:28.281Z,996.61
2018-09-06T04:27:38.342Z,996.61
2018-09-06T04:28:48.429Z,996.64
2018-09-06T04:29:58.245Z,996.63
2018-09-06T04:31:08.451Z,996.62
2018-09-06T04:32:18.763Z,996.67
2018-09-06T04:33:28.844Z,996.72
2018-09-06T04:34:38.965Z,996.7
2018-09-06T04:35:49.040Z,996.72
2018-09-06T04:36:58.927Z,996.72
2018-09-06T04:38:09.003Z,996.73
2018-09-06T04:39:18.806Z,996.73
2018-09-06T04:40:28.910Z,996.76
2018-09-06T04:41:39.001Z,996.76
2018-09-06T04:42:49.133Z,996.76
2018-09-06T04:43:59.223Z,996.78
2018-09-06T04:45:09.072Z,996.81
2018-09-06T04:46:18.904Z,996.77
2018-09-06T04:47:28.729Z,996.81
2018-09-06T04:48:38.607Z,996.83
2018-09-06T04:49:48.701Z,996.87
2018-09-06T04:50:58.535Z,996.9
2018-09-06T04:52:08.352Z,996.91
2018-09-06T04:53:18.423Z,996.91
2018-09-06T04:54:28.584Z,996.94
2018-09-06T04:55:38.712Z,996.87
2018-09-06T04:56:48.812Z,996.91
2018-09-06T04:57:58.928Z,996.89
2018-09-06T04:59:08.800Z,996.87
2018-09-06T05:00:18.624Z,996.91
2018-09-06T05:01:28.713Z,996.94
2018-09-06T05:02:38.814Z,996.96
2018-09-06T05:03:48.894Z,996.95
2018-09-06T05:04:58.995Z,996.95
2018-09-06T05:06:08.537Z,996.93
2018-09-06T05:07:18.097Z,996.93
2018-09-06T05:08:28.220Z,996.96
2018-09-06T05:09:38.320Z,996.94
2018-09-06T05:10:48.417Z,996.91
2018-09-06T05:11:58.564Z,996.93
2018-09-06T05:13:08.649Z,996.91
2018-09-06T05:14:18.748Z,996.85
2018-09-06T05:15:28.840Z,996.84
2018-09-06T05:16:38.366Z,996.81
2018-09-06T05:17:48.187Z,996.8
2018-09-06T05:18:57.995Z,996.79
2018-09-06T05:20:07.800Z,996.75
2018-09-06T05:21:17.624Z,996.8
2018-09-06T05:22:27.700Z,996.76
2018-09-06T05:23:37.852Z,996.75
2018-09-06T05:24:47.942Z,996.79
2018-09-06T05:25:58.026Z,996.75
2018-09-06T05:27:08.249Z,996.77
2018-09-06T05:28:18.110Z,996.83
2018-09-06T05:29:28.444Z,996.83
2018-09-06T05:30:38.314Z,996.89
2018-09-06T05:31:48.604Z,996.91
2018-09-06T05:32:58.701Z,996.86
2018-09-06T05:34:09.243Z,996.86
2018-09-06T05:35:19.216Z,996.82
2018-09-06T05:36:29.413Z,996.86
2018-09-06T05:37:39.665Z,996.84
2018-09-06T05:38:49.470Z,996.91
2018-09-06T05:39:59.572Z,996.86
2018-09-06T05:41:09.947Z,996.9
2018-09-06T05:42:20.038Z,996.91
2018-09-06T05:43:29.865Z,996.87
2018-09-06T05:44:39.688Z,996.86
2018-09-06T05:45:49.997Z,996.89
2018-09-06T05:46:59.857Z,996.94
2018-09-06T05:48:09.924Z,996.96
2018-09-06T05:49:20.025Z,996.99
2018-09-06T05:50:30.154Z,996.95
2018-09-06T05:51:40.228Z,996.94
2018-09-06T05:52:50.035Z,996.93
2018-09-06T05:53:59.838Z,996.89
2018-09-06T05:55:09.935Z,996.97
2018-09-06T05:56:20.078Z,996.94
2018-09-06T05:57:30.401Z,996.91
2018-09-06T05:58:40.237Z,996.89
2018-09-06T05:59:50.331Z,996.88
2018-09-06T06:01:00.379Z,996.87
2018-09-06T06:02:10.517Z,996.91
2018-09-06T06:03:20.612Z,996.92
2018-09-06T06:04:30.751Z,996.92
2018-09-06T06:05:40.837Z,996.88
2018-09-06T06:06:51.010Z,996.82
2018-09-06T06:08:00.915Z,996.86
2018-09-06T06:09:11.009Z,996.83
2018-09-06T06:10:21.113Z,996.81
2018-09-06T06:11:31.204Z,996.82
2018-09-06T06:12:41.123Z,996.84
2018-09-06T06:13:50.955Z,996.79
2018-09-06T06:15:01.302Z,996.79
2018-09-06T06:16:11.129Z,996.79
2018-09-06T06:17:21.216Z,996.77
2018-09-06T06:18:31.353Z,996.81
2018-09-06T06:19:41.443Z,996.81
2018-09-06T06:20:51.644Z,996.79
2018-09-06T06:22:01.723Z,996.81
2018-09-06T06:23:11.830Z,996.76
2018-09-06T06:24:21.418Z,996.81
2018-09-06T06:25:31.247Z,996.82
2018-09-06T06:26:41.067Z,996.82
2018-09-06T06:27:51.152Z,996.84
2018-09-06T06:29:01.490Z,996.84
2018-09-06T06:30:11.598Z,996.8
2018-09-06T06:31:21.688Z,996.82
2018-09-06T06:32:31.793Z,996.81
2018-09-06T06:33:41.947Z,996.78
2018-09-06T06:34:51.809Z,996.8
2018-09-06T06:36:01.904Z,996.78
2018-09-06T06:37:11.992Z,996.79
2018-09-06T06:38:22.098Z,996.77
2018-09-06T06:39:32.208Z,996.78
2018-09-06T06:40:42.321Z,996.81
2018-09-06T06:41:52.496Z,996.82
2018-09-06T06:43:02.614Z,996.85
2018-09-06T06:44:12.702Z,996.83
2018-09-06T06:45:22.802Z,996.81
2018-09-06T06:46:32.645Z,996.84
2018-09-06T06:47:42.738Z,996.85
2018-09-06T06:48:53.055Z,996.83
2018-09-06T06:50:02.996Z,996.88
2018-09-06T06:51:13.129Z,996.84
2018-09-06T06:52:22.935Z,996.88
2018-09-06T06:53:33.119Z,996.89
2018-09-06T06:54:43.187Z,996.91
2018-09-06T06:55:53.020Z,996.91
2018-09-06T06:57:03.334Z,996.88
2018-09-06T06:58:13.494Z,996.9
2018-09-06T06:59:23.607Z,996.88
2018-09-06T07:00:33.685Z,996.88
2018-09-06T07:01:44.021Z,996.86
2018-09-06T07:02:54.104Z,996.87
2018-09-06T07:04:03.999Z,996.89
2018-09-06T07:05:14.478Z,996.92
2018-09-06T07:06:24.563Z,996.87
2018-09-06T07:07:34.652Z,996.86
2018-09-06T07:08:44.744Z,996.92
2018-09-06T07:09:54.825Z,996.92
2018-09-06T07:11:04.657Z,996.88
2018-09-06T07:12:14.750Z,996.86
2018-09-06T07:13:24.822Z,996.85
2018-09-06T07:14:34.885Z,996.9
2018-09-06T07:15:44.985Z,996.86
2018-09-06T07:16:55.072Z,996.87
2018-09-06T07:18:05.223Z,996.82
2018-09-06T07:19:15.745Z,996.88
2018-09-06T07:20:25.544Z,996.91
2018-09-06T07:21:35.632Z,996.91
2018-09-06T07:22:45.699Z,996.91
2018-09-06T07:23:55.796Z,996.93
2018-09-06T07:25:05.698Z,996.93
2018-09-06T07:26:15.785Z,996.92
2018-09-06T07:27:25.856Z,996.93
2018-09-06T07:28:36.007Z,996.93
2018-09-06T07:29:46.101Z,996.94
2018-09-06T07:30:56.197Z,996.93
2018-09-06T07:32:06.025Z,996.91
2018-09-06T07:33:15.935Z,996.9
2018-09-06T07:34:26.041Z,996.9
2018-09-06T07:35:35.855Z,996.9
2018-09-06T07:36:45.966Z,996.91
2018-09-06T07:37:56.058Z,996.9
2018-09-06T07:39:06.178Z,996.88
2018-09-06T07:40:16.267Z,996.92
2018-09-06T07:41:25.829Z,996.88
2018-09-06T07:42:36.344Z,996.92
2018-09-06T07:43:46.421Z,996.85
2018-09-06T07:44:56.544Z,996.92
2018-09-06T07:46:06.359Z,996.91
2018-09-06T07:47:16.674Z,996.86
2018-09-06T07:48:26.790Z,996.84
2018-09-06T07:49:36.618Z,996.89
2018-09-06T07:50:46.999Z,996.87
2018-09-06T07:51:57.129Z,996.86
2018-09-06T07:53:07.285Z,996.85
2018-09-06T07:54:17.404Z,996.84
2018-09-06T07:55:27.493Z,996.83
2018-09-06T07:56:37.311Z,996.87
2018-09-06T07:57:47.400Z,996.86
2018-09-06T07:58:57.480Z,996.83
2018-09-06T08:00:07.583Z,996.84
2018-09-06T08:01:17.658Z,996.82
2018-09-06T08:02:27.837Z,996.84
2018-09-06T08:03:37.922Z,996.8
2018-09-06T08:04:48.004Z,996.74
2018-09-06T08:05:58.106Z,996.75
2018-09-06T08:07:07.910Z,996.75
2018-09-06T08:08:17.462Z,996.74
2018-09-06T08:09:27.534Z,996.71
2018-09-06T08:10:37.656Z,996.73
2018-09-06T08:11:47.806Z,996.76
2018-09-06T08:12:57.731Z,996.77
2018-09-06T08:14:07.814Z,996.76
2018-09-06T08:15:17.920Z,996.76
2018-09-06T08:16:27.990Z,996.76
2018-09-06T08:17:38.072Z,996.7
2018-09-06T08:18:48.184Z,996.7
2018-09-06T08:19:58.789Z,996.71
2018-09-06T08:21:08.899Z,996.71
2018-09-06T08:22:19.007Z,996.71
2018-09-06T08:23:29.089Z,996.71
2018-09-06T08:24:39.182Z,996.7
2018-09-06T08:25:49.014Z,996.71
2018-09-06T08:26:59.124Z,996.75
2018-09-06T08:28:09.230Z,996.72
2018-09-06T08:29:19.341Z,996.66
2018-09-06T08:30:29.521Z,996.73
2018-09-06T08:31:39.718Z,996.74
2018-09-06T08:32:49.832Z,996.66
2018-09-06T08:33:59.913Z,996.7
2018-09-06T08:35:09.993Z,996.69
2018-09-06T08:36:20.086Z,996.71
2018-09-06T08:37:30.164Z,996.73
2018-09-06T08:38:40.259Z,996.68
2018-09-06T08:39:50.335Z,996.66
2018-09-06T08:41:00.440Z,996.64
2018-09-06T08:42:10.573Z,996.67
2018-09-06T08:43:20.655Z,996.67
2018-09-06T08:44:30.741Z,996.64
2018-09-06T08:45:40.573Z,996.66
2018-09-06T08:46:50.649Z,996.63
2018-09-06T08:48:01.136Z,996.61
2018-09-06T08:49:11.232Z,996.63
2018-09-06T08:50:21.073Z,996.61
2018-09-06T08:51:31.186Z,996.62
2018-09-06T08:52:41.256Z,996.58
2018-09-06T08:53:51.339Z,996.58
2018-09-06T08:55:00.937Z,996.58
2018-09-06T08:56:11.019Z,996.49
2018-09-06T08:57:20.824Z,996.51
2018-09-06T08:58:30.983Z,996.51
2018-09-06T08:59:41.379Z,996.51
2018-09-06T09:00:51.255Z,996.49
2018-09-06T09:02:00.948Z,996.48
2018-09-06T09:03:11.509Z,996.47
2018-09-06T09:04:22.161Z,996.47
2018-09-06T09:05:32.287Z,996.43
2018-09-06T09:06:42.477Z,996.42
2018-09-06T09:07:53.500Z,996.42
2018-09-06T09:09:09.932Z,996.42
2018-09-06T09:10:25.280Z,996.39
2018-09-06T09:11:39.539Z,996.42
2018-09-06T09:12:54.143Z,996.4
2018-09-06T09:22:11.826Z,996.36
2018-09-06T09:23:22.563Z,996.43
2018-09-06T09:24:32.406Z,996.33
2018-09-06T09:25:42.490Z,996.34
2018-09-06T09:26:52.620Z,996.37
2018-09-06T09:28:02.765Z,996.31
2018-09-06T09:29:12.863Z,996.29
2018-09-06T09:30:22.942Z,996.31
2018-09-06T09:31:33.380Z,996.28
2018-09-06T09:32:43.479Z,996.26
2018-09-06T09:33:53.606Z,996.3
2018-09-06T09:35:03.707Z,996.31
2018-09-06T09:36:13.895Z,996.3
2018-09-06T09:37:24.358Z,996.29
2018-09-06T09:38:36.824Z,996.3
2018-09-06T09:39:52.326Z,996.29
2018-09-06T09:41:09.891Z,996.29
2018-09-06T09:42:30.140Z,996.25
2018-09-06T09:43:45.128Z,996.32
2018-09-06T09:45:04.474Z,996.28
2018-09-06T09:48:47.009Z,996.17
2018-09-06T09:50:02.747Z,996.17
2018-09-06T09:51:19.299Z,996.2
2018-09-06T09:52:37.049Z,996.14
2018-09-06T09:53:50.741Z,996.13
2018-09-06T09:55:00.572Z,996.08
2018-09-06T09:56:10.682Z,996.12
2018-09-06T09:57:20.236Z,996.16
2018-09-06T09:58:30.339Z,996.08
2018-09-06T09:59:40.434Z,996.1
2018-09-06T10:00:50.279Z,996.04
2018-09-06T10:02:00.707Z,996.07
2018-09-06T10:03:10.783Z,996.08
2018-09-06T10:04:20.875Z,996.08
2018-09-06T10:05:30.966Z,996.08
2018-09-06T10:06:41.100Z,996.08
2018-09-06T10:07:51.215Z,996.05
2018-09-06T10:09:01.385Z,996.05
2018-09-06T10:10:11.198Z,996.04
2018-09-06T10:11:21.282Z,996
2018-09-06T10:12:30.885Z,995.98
2018-09-06T10:13:40.714Z,995.94
2018-09-06T10:14:50.826Z,995.92
2018-09-06T10:16:01.024Z,995.89
2018-09-06T10:17:10.860Z,995.89
2018-09-06T10:18:21.168Z,995.84
2018-09-06T10:19:31.279Z,995.81
2018-09-06T10:20:41.366Z,995.82
2018-09-06T10:21:51.483Z,995.82
2018-09-06T10:23:01.619Z,995.78
2018-09-06T10:24:11.998Z,995.79
2018-09-06T10:25:22.100Z,995.77
2018-09-06T10:26:32.539Z,995.72
2018-09-06T10:27:43.097Z,995.7
2018-09-06T10:28:53.212Z,995.73
2018-09-06T10:30:03.319Z,995.73
2018-09-06T10:31:13.421Z,995.68
2018-09-06T10:32:23.533Z,995.7
2018-09-06T10:33:33.368Z,995.61
2018-09-06T10:34:43.509Z,995.66
2018-09-06T10:35:53.561Z,995.55
2018-09-06T10:37:03.793Z,995.56
2018-09-06T10:38:13.882Z,995.57
2018-09-06T10:39:23.771Z,995.61
2018-09-06T10:40:34.305Z,995.59
2018-09-06T10:41:44.548Z,995.61
2018-09-06T10:42:54.645Z,995.57
2018-09-06T10:44:04.741Z,995.59
2018-09-06T10:45:14.880Z,995.63
2018-09-06T10:46:24.994Z,995.64
2018-09-06T10:47:34.820Z,995.6
2018-09-06T10:48:45.050Z,995.62
2018-09-06T10:49:54.896Z,995.6
2018-09-06T10:51:05.008Z,995.57
2018-09-06T10:52:15.117Z,995.58
2018-09-06T10:53:25.199Z,995.54
2018-09-06T10:54:35.291Z,995.57
2018-09-06T10:55:45.408Z,995.54
2018-09-06T10:56:55.229Z,995.51
2018-09-06T10:58:05.361Z,995.48
2018-09-06T10:59:15.249Z,995.47
2018-09-06T11:00:25.380Z,995.46
2018-09-06T11:01:35.548Z,995.45
2018-09-06T11:02:45.658Z,995.44
2018-09-06T11:03:55.516Z,995.44
2018-09-06T11:05:06.162Z,995.44
2018-09-06T11:06:16.268Z,995.43
2018-09-06T11:07:26.372Z,995.45
2018-09-06T11:08:36.469Z,995.43
2018-09-06T11:09:46.548Z,995.46
2018-09-06T11:10:56.366Z,995.46
2018-09-06T11:12:06.198Z,995.38
2018-09-06T11:13:16.315Z,995.42
2018-09-06T11:14:26.444Z,995.41
2018-09-06T11:15:36.620Z,995.42
2018-09-06T11:16:46.747Z,995.34
2018-09-06T11:17:56.916Z,995.38
2018-09-06T11:19:07.025Z,995.35
2018-09-06T11:20:16.858Z,995.34
2018-09-06T11:21:27.056Z,995.32
2018-09-06T11:22:38.511Z,995.31
2018-09-06T11:23:49.716Z,995.33
2018-09-06T11:24:59.890Z,995.32
2018-09-06T11:26:10.116Z,995.3
2018-09-06T11:27:20.258Z,995.24
2018-09-06T11:28:30.593Z,995.24
2018-09-06T11:29:40.691Z,995.27
2018-09-06T11:30:50.543Z,995.27
2018-09-06T11:32:00.661Z,995.28
2018-09-06T11:33:10.810Z,995.18
2018-09-06T11:34:20.885Z,995.2
2018-09-06T11:35:30.988Z,995.28
2018-09-06T11:36:41.128Z,995.27
2018-09-06T11:37:51.327Z,995.26
2018-09-06T11:39:01.436Z,995.25
2018-09-06T11:40:11.598Z,995.26
2018-09-06T11:41:22.143Z,995.22
2018-09-06T11:42:32.247Z,995.24
2018-09-06T11:43:42.407Z,995.24
2018-09-06T11:44:52.508Z,995.19
2018-09-06T11:46:02.620Z,995.15
2018-09-06T11:47:12.504Z,995.22
2018-09-06T11:48:23.317Z,995.17
2018-09-06T11:49:33.397Z,995.13
2018-09-06T11:50:43.227Z,995.13
2018-09-06T11:51:53.068Z,995.16
2018-09-06T11:53:03.274Z,995.15
2018-09-06T11:54:13.365Z,995.17
2018-09-06T11:55:23.489Z,995.17
2018-09-06T11:56:33.654Z,995.15
2018-09-06T11:57:43.583Z,995.11
2018-09-06T11:58:53.816Z,995.09
2018-09-06T12:00:03.825Z,995.11
2018-09-06T12:01:14.032Z,995.16
2018-09-06T12:02:24.323Z,995.1
2018-09-06T12:03:34.153Z,995.1
2018-09-06T12:04:44.237Z,995.11
2018-09-06T12:05:54.381Z,995.06
2018-09-06T12:07:04.537Z,995.11
2018-09-06T12:08:14.678Z,995.07
2018-09-06T12:09:24.260Z,995.09
2018-09-06T12:10:34.348Z,995.09
2018-09-06T12:11:44.476Z,995.1
2018-09-06T12:12:54.314Z,995.13
2018-09-06T12:14:04.174Z,995.1
2018-09-06T12:15:14.255Z,995.09
2018-09-06T12:16:24.349Z,995.08
2018-09-06T12:17:34.459Z,995.03
2018-09-06T12:18:44.310Z,995.05
2018-09-06T12:19:54.409Z,995.06
2018-09-06T12:21:04.495Z,995.03
2018-09-06T12:22:14.583Z,995.09
2018-09-06T12:23:24.407Z,995.07
2018-09-06T12:24:34.526Z,995.07
2018-09-06T12:25:44.698Z,994.99
2018-09-06T12:26:55.274Z,994.95
2018-09-06T12:28:05.351Z,994.95
2018-09-06T12:29:15.199Z,994.88
2018-09-06T12:30:25.304Z,994.87
2018-09-06T12:31:35.423Z,994.83
2018-09-06T12:32:45.559Z,994.81
2018-09-06T12:33:55.397Z,994.81
2018-09-06T12:35:05.637Z,994.83
2018-09-06T12:36:15.750Z,994.75
2018-09-06T12:37:25.869Z,994.76
2018-09-06T12:38:35.716Z,994.77
2018-09-06T12:39:46.109Z,994.75
2018-09-06T12:40:56.185Z,994.75
2018-09-06T12:42:06.004Z,994.81
2018-09-06T12:43:16.083Z,994.82
2018-09-06T12:44:26.181Z,994.83
2018-09-06T12:45:36.048Z,994.77
2018-09-06T12:46:45.893Z,994.74
2018-09-06T12:47:55.981Z,994.8
2018-09-06T12:49:06.127Z,994.78
2018-09-06T12:50:15.971Z,994.79
2018-09-06T12:51:25.571Z,994.79
2018-09-06T12:52:35.444Z,994.76
2018-09-06T12:53:45.548Z,994.75
2018-09-06T12:54:55.377Z,994.74
2018-09-06T12:56:05.204Z,994.75
2018-09-06T12:57:15.032Z,994.7
2018-09-06T12:58:24.633Z,994.66
2018-09-06T12:59:34.729Z,994.68
2018-09-06T13:00:44.558Z,994.7
2018-09-06T13:01:54.406Z,994.65
2018-09-06T13:03:04.503Z,994.64
2018-09-06T13:04:14.416Z,994.68
2018-09-06T13:05:24.510Z,994.68
2018-09-06T13:06:34.590Z,994.6
2018-09-06T13:07:44.438Z,994.59
2018-09-06T13:08:54.272Z,994.57
2018-09-06T13:10:04.423Z,994.59
2018-09-06T13:11:14.541Z,994.54
2018-09-06T13:12:24.647Z,994.51
2018-09-06T13:13:34.484Z,994.52
2018-09-06T13:14:44.602Z,994.51
2018-09-06T13:15:54.976Z,994.49
2018-09-06T13:17:05.073Z,994.47
2018-09-06T13:18:14.959Z,994.45
2018-09-06T13:19:25.095Z,994.46
2018-09-06T13:20:34.939Z,994.42
2018-09-06T13:21:45.028Z,994.4
2018-09-06T13:22:55.119Z,994.45
2018-09-06T13:24:05.249Z,994.42
2018-09-06T13:25:15.093Z,994.4
2018-09-06T13:26:25.181Z,994.37
2018-09-06T13:27:35.528Z,994.43
2018-09-06T13:28:45.627Z,994.41
2018-09-06T13:29:55.478Z,994.34
2018-09-06T13:31:05.769Z,994.36
2018-09-06T13:32:15.894Z,994.34
2018-09-06T13:33:26.009Z,994.32
2018-09-06T13:34:35.850Z,994.34
2018-09-06T13:35:45.982Z,994.35
2018-09-06T13:36:55.833Z,994.31
2018-09-06T13:38:05.940Z,994.3
2018-09-06T13:39:16.100Z,994.28
2018-09-06T13:40:26.230Z,994.28
2018-09-06T13:41:36.069Z,994.26
2018-09-06T13:42:45.902Z,994.24
2018-09-06T13:43:55.994Z,994.23
2018-09-06T13:45:06.136Z,994.24
2018-09-06T13:46:15.988Z,994.26
2018-09-06T13:47:25.818Z,994.24
2018-09-06T13:48:35.388Z,994.28
2018-09-06T13:49:45.230Z,994.17
2018-09-06T13:50:55.554Z,994.18
2018-09-06T13:52:05.678Z,994.15
2018-09-06T13:53:16.226Z,994.13
2018-09-06T13:54:26.345Z,994.13
2018-09-06T13:55:36.441Z,994.13
2018-09-06T13:56:46.550Z,994.16
2018-09-06T13:57:56.654Z,994.16
2018-09-06T13:59:06.760Z,994.12
2018-09-06T14:00:16.859Z,994.09
2018-09-06T14:01:27.069Z,994.06
2018-09-06T14:02:36.896Z,994.05
2018-09-06T14:03:46.997Z,994.04
2018-09-06T14:04:57.107Z,994.01
2018-09-06T14:06:07.425Z,994.04
2018-09-06T14:07:17.513Z,993.99
2018-09-06T14:08:27.336Z,994.01
2018-09-06T14:09:37.158Z,993.94
2018-09-06T14:10:47.246Z,993.95
2018-09-06T14:11:57.336Z,993.95
2018-09-06T14:13:07.269Z,993.96
2018-09-06T14:14:17.381Z,993.94
2018-09-06T14:15:27.476Z,993.9
2018-09-06T14:16:37.675Z,993.93
2018-09-06T14:17:47.561Z,993.88
2018-09-06T14:18:57.472Z,993.91
2018-09-06T14:20:07.574Z,993.88
2018-09-06T14:21:17.408Z,993.83
2018-09-06T14:22:27.493Z,993.83
2018-09-06T14:23:37.309Z,993.85
2018-09-06T14:24:47.431Z,993.82
2018-09-06T14:25:57.246Z,993.8
2018-09-06T14:27:07.075Z,993.8
2018-09-06T14:28:17.160Z,993.8
2018-09-06T14:29:27.243Z,993.79
2018-09-06T14:30:37.379Z,993.74
2018-09-06T14:31:47.483Z,993.74
2018-09-06T14:32:57.054Z,993.75
2018-09-06T14:34:07.154Z,993.74
2018-09-06T14:35:16.991Z,993.77
2018-09-06T14:36:26.883Z,993.71
2018-09-06T14:37:36.964Z,993.71
2018-09-06T14:38:46.874Z,993.71
2018-09-06T14:39:56.955Z,993.59
2018-09-06T14:41:07.071Z,993.63
2018-09-06T14:42:17.172Z,993.63
2018-09-06T14:43:27.270Z,993.63
2018-09-06T14:44:37.094Z,993.6
2018-09-06T14:45:46.675Z,993.61
2018-09-06T14:46:56.766Z,993.58
2018-09-06T14:48:06.848Z,993.57
2018-09-06T14:49:16.952Z,993.57
2018-09-06T14:50:27.031Z,993.54
2018-09-06T14:51:37.179Z,993.55
2018-09-06T14:52:47.522Z,993.54
2018-09-06T14:53:57.700Z,993.54
2018-09-06T14:55:07.786Z,993.55
2018-09-06T14:56:17.923Z,993.52
2018-09-06T14:57:28.037Z,993.55
2018-09-06T14:58:37.600Z,993.49
2018-09-06T14:59:47.750Z,993.5
2018-09-06T15:00:57.593Z,993.5
2018-09-06T15:02:07.682Z,993.52
2018-09-06T15:03:17.784Z,993.51
2018-09-06T15:04:27.869Z,993.47
2018-09-06T15:05:37.758Z,993.5
2018-09-06T15:06:47.850Z,993.49
2018-09-06T15:07:57.750Z,993.5
2018-09-06T15:09:08.354Z,993.48
2018-09-06T15:10:18.533Z,993.49
2018-09-06T15:11:29.409Z,993.56
2018-09-06T15:12:39.512Z,993.5
2018-09-06T15:13:49.352Z,993.47
2018-09-06T15:14:59.845Z,993.5
2018-09-06T15:16:09.949Z,993.49
2018-09-06T15:17:20.049Z,993.47
2018-09-06T15:18:30.136Z,993.47
2018-09-06T15:19:40.247Z,993.47
2018-09-06T15:20:50.329Z,993.45